Panther Prowl 5K - 2019

Individual Results

Summary

Number of finishers:
998
Number of females:
542
Number of males:
456
Average time:
40:16

Info

October 12, 2019 in Milwaukee, WI

Results By

Individual Results - Results

Leaderboard
Charts and Stats
Select division:

displaying: 1 - 40 of 40
number of records per page: [10] [25] [all]

    NO FN LN DIVISION OVERALL DIVPL SEXPL TIME PACE
411 Sabine Heuer F 40-44 555 20/35 246/542 38:21 12:22
1158 Katie Whittaker F 30-34 556 21/39 247/542 38:24 12:24
1286 Carson Brady F 20-24 557 62/138 248/542 38:29 12:25
249 Mikaila Dusenberry F 20-24 558 63/138 249/542 38:41 12:29
895 Thomas Sallese M 20-24 559 78/111 310/456 38:41 12:29
1124 Sung-Yu Wang M 20-24 560 79/111 311/456 38:47 12:31
122 Margot Brunet F 15-19 561 35/55 250/542 38:51 12:32
416 Dylan Hoffman M 15-19 562 30/43 312/456 38:54 12:33
557 Leah Kukis F 15-19 563 36/55 251/542 38:54 12:33
1189 Jennifer Woo F 30-34 564 22/39 252/542 39:04 12:36
1143 Sandra Weinstein F 80 UP 565 1/1 253/542 39:10 12:38
714 Mark Musa M 34-39 566 15/21 313/456 39:22 12:42
1040 Cameron Taylor M 01-10 567 10/13 314/456 39:26 12:44
769 Jarad Parker M 40-44 568 33/39 315/456 39:27 12:44
768 Cadence Parker F 01-10 569 2/5 254/542 39:27 12:44
1131 Ramona Washington F 45-49 570 18/47 255/542 39:30 12:45
578 Jessica Laughlin F 20-24 571 64/138 256/542 39:31 12:45
1042 Karen Taylor F 45-49 572 19/47 257/542 39:32 12:46
1414 David Quam M 50-54 573 23/39 316/456 39:37 12:47
1134 Jessica Watson F 45-49 574 20/47 258/542 39:37 12:47
1118 Michael Walker M 55-59 575 17/22 317/456 39:50 12:51
90 Kailey Borden F 20-24 576 65/138 259/542 39:50 12:51
91 Lucas Borden M 20-24 577 80/111 318/456 39:51 12:51
88 Barbara Borden F 50-54 578 19/45 260/542 39:51 12:52
1261 Jan Kaufman F 65-69 579 2/10 261/542 39:52 12:52
996 Shubhangi Stalder F 55-59 580 16/37 262/542 39:53 12:52
295 Laura Fish F 45-49 581 21/47 263/542 39:56 12:53
294 Andy Fish M 45-49 582 15/26 319/456 39:56 12:53
238 Carol Dorau F 75-79 583 2/5 264/542 39:56 12:53
403 Magdalisse Henderson F 34-39 584 18/33 265/542 39:57 12:53
1433 William Lwx M 15-19 585 31/43 320/456 39:58 12:54
1432 Maxwell Colhi M 15-19 586 32/43 321/456 39:58 12:54
857 Lucila Reyes F 50-54 587 20/45 266/542 39:58 12:54
304 Kevin Flynn M 15-19 588 33/43 322/456 40:00 12:54
843 Juliana Rattin F 20-24 589 66/138 267/542 40:02 12:55
1195 Gozuag Xiong F 25-29 590 33/57 268/542 40:02 12:55
1283 Emma Kosanoic F 20-24 591 67/138 269/542 40:11 12:58
1436 Eliezer Hurtado M 20-24 592 81/111 323/456 40:11 12:58
1103 Cathy Vanheest F 40-44 593 21/35 270/542 40:25 13:03
    NO FN LN DIVISION OVERALL DIVPL SEXPL TIME PACE
908 Brian Sawyer M 50-54 594 24/39 324/456 40:26 13:03

  • share - click this icon in the results above to share via Facebook, Twitter, email, and more
  • print - click this icon in the results above for a printable page
  • radius - click this icon in the results above to show finishers before and after